Wellsville, Missouri
Current Conditions -  °F | °C
As of 3:54 PM on Thursday 23 Oct 2014 (Local Time) from KCOU Reporting Station
Few Clouds Few Clouds  
Wind Chill: 62°   Ceiling: Unl
Heat Index: 62°   Visibility: 10mi
Dew Point: 51°   Wind: 8mph
Humidity: 67%   Direction: 200°SSW
Pressure: 30.08"   Gusts: NA
Location:  39.07°N, 91.57°W
Report Text: KCOU 232054Z 20007KT 10SM FEW060 17/11 A3008 RMK AO2 SLP185 60000 T01670106 56022
Loading
Personal Weather Stations






























Interactive Weather Map
Tropical Storm Tracking
New forecast layout! Learn more

10-Day Weather Forecast

Advertisements
Track Severe Weather on mobile